createdAt,value
2022-08-27T00:00:48.555Z,100126.94
2022-08-27T00:03:16.780Z,100133.50
2022-08-27T00:05:43.767Z,100120.12
2022-08-27T00:08:12.757Z,100126.91
2022-08-27T00:10:41.509Z,100128.81
2022-08-27T00:13:08.601Z,100132.59
2022-08-27T00:15:35.773Z,100125.78
2022-08-27T00:18:03.335Z,100124.44
2022-08-27T00:20:30.273Z,100126.88
2022-08-27T00:22:57.038Z,100121.72
2022-08-27T00:25:24.108Z,100127.41
2022-08-27T00:27:51.711Z,100117.91
2022-08-27T00:30:20.721Z,100116.22
2022-08-27T00:32:47.894Z,100120.00
2022-08-27T00:35:16.159Z,100129.00
2022-08-27T00:37:43.736Z,100120.00
2022-08-27T00:40:16.687Z,100132.50
2022-08-27T00:42:46.020Z,100135.75
2022-08-27T00:45:16.201Z,100139.78
2022-08-27T00:47:47.258Z,100140.91
2022-08-27T00:50:18.757Z,100137.59
2022-08-27T00:52:57.739Z,100129.22
2022-08-27T00:55:44.439Z,100139.78
2022-08-27T00:58:17.739Z,100139.25
2022-08-27T01:00:46.547Z,100134.38
2022-08-27T01:03:14.565Z,100121.84
2022-08-27T01:05:44.176Z,100130.31
2022-08-27T01:08:19.170Z,100115.63
2022-08-27T01:10:46.617Z,100131.66
2022-08-27T01:13:17.335Z,100132.75
2022-08-27T01:15:44.535Z,100144.41
2022-08-27T01:18:13.576Z,100130.84
2022-08-27T01:21:14.413Z,100133.03
2022-08-27T01:23:50.815Z,100134.38
2022-08-27T01:26:18.655Z,100148.78
2022-08-27T01:28:45.905Z,100137.06
2022-08-27T01:31:13.345Z,100119.13
2022-08-27T01:33:40.608Z,100122.91
2022-08-27T01:36:08.219Z,100136.25
2022-08-27T01:38:35.167Z,100136.78
2022-08-27T01:41:03.606Z,100120.94
2022-08-27T01:43:31.773Z,100122.31
2022-08-27T01:45:58.892Z,100135.13
2022-08-27T01:48:25.881Z,100138.09
2022-08-27T01:50:52.708Z,100131.25
2022-08-27T01:53:22.882Z,100130.12
2022-08-27T01:55:52.125Z,100135.56
2022-08-27T01:58:21.222Z,100126.31
2022-08-27T02:00:56.431Z,100138.53
2022-08-27T02:03:24.776Z,100125.22
2022-08-27T02:05:51.620Z,100128.97
2022-08-27T02:08:18.969Z,100128.75
2022-08-27T02:10:48.593Z,100125.22
2022-08-27T02:13:16.601Z,100127.59
2022-08-27T02:15:44.515Z,100136.34
2022-08-27T02:18:12.267Z,100133.09
2022-08-27T02:20:39.471Z,100124.59
2022-08-27T02:23:06.382Z,100132.75
2022-08-27T02:25:34.112Z,100127.31
2022-08-27T02:28:01.920Z,100129.22
2022-08-27T02:30:32.097Z,100116.41
2022-08-27T02:33:05.481Z,100118.84
2022-08-27T02:35:35.483Z,100129.41
2022-08-27T02:38:02.941Z,100124.81
2022-08-27T02:40:29.919Z,100129.13
2022-08-27T02:42:56.712Z,100132.91
2022-08-27T02:45:23.982Z,100128.81
2022-08-27T02:47:50.769Z,100130.97
2022-08-27T02:50:17.875Z,100119.53
2022-08-27T02:52:46.385Z,100133.13
2022-08-27T02:55:14.304Z,100131.50
2022-08-27T02:57:45.020Z,100126.34
2022-08-27T03:00:15.009Z,100115.75
2022-08-27T03:02:42.060Z,100108.06
2022-08-27T03:05:11.981Z,100120.03
2022-08-27T03:07:38.901Z,100124.13
2022-08-27T03:10:06.632Z,100099.41
2022-08-27T03:12:36.361Z,100117.34
2022-08-27T03:15:08.394Z,100124.13
2022-08-27T03:17:54.237Z,100117.91
2022-08-27T03:20:21.421Z,100119.25
2022-08-27T03:22:49.159Z,100127.91
2022-08-27T03:25:16.098Z,100120.88
2022-08-27T03:27:42.871Z,100120.03
2022-08-27T03:30:13.265Z,100118.41
2022-08-27T03:32:40.142Z,100108.59
2022-08-27T03:35:08.173Z,100130.88
2022-08-27T03:37:35.547Z,100124.91
2022-08-27T03:40:02.427Z,100114.00
2022-08-27T03:42:29.313Z,100113.50
2022-08-27T03:44:56.604Z,100115.94
2022-08-27T03:47:23.893Z,100122.75
2022-08-27T03:49:50.642Z,100121.69
2022-08-27T03:52:17.719Z,100110.28
2022-08-27T03:54:44.389Z,100107.56
2022-08-27T03:57:11.837Z,100100.78
2022-08-27T03:59:39.155Z,100120.09
2022-08-27T04:02:05.994Z,100108.16
2022-08-27T04:04:33.063Z,100115.22
2022-08-27T04:07:00.152Z,100108.16
2022-08-27T04:09:27.143Z,100107.34
2022-08-27T04:11:54.279Z,100113.34
2022-08-27T04:14:27.316Z,100107.66
2022-08-27T04:16:56.669Z,100104.69
2022-08-27T04:19:27.649Z,100105.25
2022-08-27T04:22:02.453Z,100097.06
2022-08-27T04:24:31.380Z,100103.91
2022-08-27T04:26:59.951Z,100102.84
2022-08-27T04:29:27.262Z,100101.78
2022-08-27T04:31:54.729Z,100100.66
2022-08-27T04:34:21.954Z,100098.03
2022-08-27T04:36:48.822Z,100093.72
2022-08-27T04:39:16.214Z,100083.12
2022-08-27T04:41:43.215Z,100089.97
2022-08-27T04:44:11.535Z,100094.34
2022-08-27T04:46:40.772Z,100087.87
2022-08-27T04:49:15.514Z,100085.53
2022-08-27T04:51:43.302Z,100091.03
2022-08-27T04:54:10.738Z,100093.47
2022-08-27T04:56:38.294Z,100083.44
2022-08-27T04:59:08.169Z,100084.00
2022-08-27T05:01:36.184Z,100094.06
2022-08-27T05:04:03.490Z,100081.53
2022-08-27T05:06:30.696Z,100084.53
2022-08-27T05:08:57.828Z,100092.16
2022-08-27T05:11:27.189Z,100089.19
2022-08-27T05:13:53.949Z,100100.34
2022-08-27T05:16:22.972Z,100104.94
2022-08-27T05:18:51.796Z,100098.97
2022-08-27T05:21:22.989Z,100097.31
2022-08-27T05:23:51.022Z,100104.38
2022-08-27T05:26:18.645Z,100113.84
2022-08-27T05:28:45.637Z,100099.75
2022-08-27T05:31:14.320Z,100086.41
2022-08-27T05:33:42.260Z,100089.16
2022-08-27T05:36:26.329Z,100100.00
2022-08-27T05:38:54.897Z,100107.56
2022-08-27T05:41:25.755Z,100096.94
2022-08-27T05:44:30.280Z,100104.84
2022-08-27T05:46:56.043Z,100105.37
2022-08-27T05:49:23.183Z,100090.97
2022-08-27T05:51:50.173Z,100099.75
2022-08-27T05:54:19.626Z,100100.03
2022-08-27T05:56:50.128Z,100098.41
2022-08-27T05:59:36.578Z,100097.91
2022-08-27T06:02:06.328Z,100094.06
2022-08-27T06:04:33.414Z,100086.47
2022-08-27T06:07:00.150Z,100093.84
2022-08-27T06:09:31.357Z,100095.50
2022-08-27T06:12:00.214Z,100096.03
2022-08-27T06:14:27.192Z,100092.50
2022-08-27T06:16:54.220Z,100099.56
2022-08-27T06:19:21.591Z,100081.09
2022-08-27T06:22:00.727Z,100070.75
2022-08-27T06:24:29.243Z,100081.63
2022-08-27T06:26:57.527Z,100093.06
2022-08-27T06:29:25.140Z,100072.94
2022-08-27T06:31:53.043Z,100084.63
2022-08-27T06:34:19.912Z,100087.09
2022-08-27T06:36:46.671Z,100081.94
2022-08-27T06:39:15.521Z,100090.88
2022-08-27T06:41:44.186Z,100087.09
2022-08-27T06:44:12.348Z,100091.97
2022-08-27T06:46:39.720Z,100083.03
2022-08-27T06:49:07.195Z,100078.69
2022-08-27T06:51:36.312Z,100085.75
2022-08-27T06:54:09.484Z,100088.78
2022-08-27T06:56:36.448Z,100082.81
2022-08-27T06:59:12.058Z,100070.84
2022-08-27T07:01:41.832Z,100073.31
2022-08-27T07:04:12.575Z,100068.72
2022-08-27T07:06:41.016Z,100071.41
2022-08-27T07:09:09.512Z,100076.28
2022-08-27T07:11:36.720Z,100068.97
2022-08-27T07:14:04.942Z,100063.50
2022-08-27T07:16:31.968Z,100072.50
2022-08-27T07:19:03.700Z,100059.16
2022-08-27T07:21:32.328Z,100059.72
2022-08-27T07:24:03.658Z,100077.94
2022-08-27T07:26:33.015Z,100064.91
2022-08-27T07:29:00.927Z,100078.25
2022-08-27T07:31:28.250Z,100068.78
2022-08-27T07:33:55.449Z,100069.31
2022-08-27T07:36:23.143Z,100068.28
2022-08-27T07:38:56.953Z,100051.69
2022-08-27T07:41:31.225Z,100064.22
2022-08-27T07:44:19.983Z,100059.31
2022-08-27T07:46:49.326Z,100055.25
2022-08-27T07:49:17.972Z,100034.03
2022-08-27T07:51:45.779Z,100053.06
2022-08-27T07:54:12.958Z,100044.91
2022-08-27T07:56:39.825Z,100030.75
2022-08-27T07:59:07.013Z,100041.09
2022-08-27T08:01:34.387Z,100033.75
2022-08-27T08:04:01.934Z,100041.63
2022-08-27T08:06:28.757Z,100050.87
2022-08-27T08:08:55.569Z,100056.84
2022-08-27T08:11:22.578Z,100044.34
2022-08-27T08:13:49.309Z,100054.66
2022-08-27T08:16:16.267Z,100053.28
2022-08-27T08:18:43.306Z,100059.78
2022-08-27T08:21:13.732Z,100035.59
2022-08-27T08:23:42.312Z,100047.53
2022-08-27T08:26:12.142Z,100069.81
2022-08-27T08:28:40.132Z,100048.06
2022-08-27T08:31:07.837Z,100045.28
2022-08-27T08:33:35.576Z,100041.97
2022-08-27T08:36:14.970Z,100042.75
2022-08-27T08:38:43.501Z,100031.50
2022-08-27T08:41:38.017Z,100044.00
2022-08-27T08:44:14.828Z,100042.25
2022-08-27T08:46:55.761Z,100039.47
2022-08-27T08:50:11.335Z,100033.41
2022-08-27T08:52:49.786Z,100041.50
2022-08-27T08:55:42.006Z,100038.13
2022-08-27T08:58:25.977Z,100046.50
2022-08-27T09:01:03.714Z,100038.44
2022-08-27T09:03:35.522Z,100042.19
2022-08-27T09:06:09.035Z,100039.94
2022-08-27T09:08:42.549Z,100039.81
2022-08-27T09:11:16.245Z,100040.00
2022-08-27T09:13:53.372Z,100038.62
2022-08-27T09:16:20.685Z,100036.66
2022-08-27T09:18:52.512Z,100028.19
2022-08-27T09:21:43.451Z,100027.31
2022-08-27T09:24:35.594Z,100027.78
2022-08-27T09:27:02.656Z,100027.78
2022-08-27T09:29:30.252Z,100024.78
2022-08-27T09:31:59.408Z,100030.25
2022-08-27T09:34:34.640Z,100023.78
2022-08-27T09:37:10.437Z,100035.97
2022-08-27T09:40:06.197Z,100036.94
2022-08-27T09:42:49.618Z,100027.56
2022-08-27T09:45:25.930Z,100027.56
2022-08-27T09:48:07.465Z,100031.03
2022-08-27T09:50:50.761Z,100024.59
2022-08-27T09:53:25.547Z,100021.22
2022-08-27T09:55:58.404Z,100014.75
2022-08-27T09:58:34.505Z,100021.13
2022-08-27T10:01:19.620Z,100017.28
2022-08-27T10:03:47.367Z,100009.47
2022-08-27T10:06:14.209Z,100004.62
2022-08-27T10:08:48.834Z,99987.63
2022-08-27T10:11:34.810Z,100007.38
2022-08-27T10:14:16.366Z,100009.22
2022-08-27T10:17:10.600Z,100006.09
2022-08-27T10:20:16.320Z,99993.94
2022-08-27T10:22:52.132Z,100011.06
2022-08-27T10:25:21.827Z,99994.34
2022-08-27T10:28:05.075Z,100013.00
2022-08-27T10:30:41.954Z,100004.41
2022-08-27T10:33:15.063Z,100003.97
2022-08-27T10:35:54.690Z,100001.12
2022-08-27T10:38:43.811Z,100004.69
2022-08-27T10:41:11.741Z,99997.78
2022-08-27T10:43:47.794Z,99998.69
2022-08-27T10:46:33.179Z,99999.56
2022-08-27T10:49:18.360Z,100010.78
2022-08-27T10:52:16.857Z,100008.47
2022-08-27T10:54:46.734Z,100006.59
2022-08-27T10:57:45.521Z,100008.00
2022-08-27T11:00:16.773Z,100000.56
2022-08-27T11:03:25.161Z,100005.12
2022-08-27T11:05:56.066Z,100011.09
2022-08-27T11:08:36.637Z,100010.16
2022-08-27T11:11:57.122Z,100009.75
2022-08-27T11:14:01.111Z,100010.13
2022-08-27T11:16:37.230Z,100007.22
2022-08-27T11:19:15.203Z,100001.75
2022-08-27T11:22:05.784Z,100015.53
2022-08-27T11:24:57.448Z,100008.94
2022-08-27T11:27:27.412Z,100007.00
2022-08-27T11:30:20.182Z,100012.97
2022-08-27T11:32:55.799Z,100000.91
2022-08-27T11:35:35.529Z,100000.25
2022-08-27T11:38:35.849Z,100004.50
2022-08-27T11:41:11.780Z,100002.44
2022-08-27T11:43:39.219Z,100000.69
2022-08-27T11:46:08.640Z,99977.75
2022-08-27T11:48:41.926Z,99983.91
2022-08-27T11:51:28.606Z,99993.94
2022-08-27T11:54:01.938Z,99987.19
2022-08-27T11:56:29.060Z,99987.53
2022-08-27T11:58:56.791Z,99987.09
2022-08-27T12:01:31.618Z,99972.84
2022-08-27T12:04:25.324Z,99987.13
2022-08-27T12:07:02.630Z,99983.78
2022-08-27T12:09:42.873Z,99985.87
2022-08-27T12:12:16.975Z,99986.34
2022-08-27T12:15:03.785Z,99985.06
2022-08-27T12:17:44.756Z,99980.91
2022-08-27T12:20:14.458Z,99980.72
2022-08-27T12:23:21.142Z,99978.66
2022-08-27T12:25:56.658Z,99972.50
2022-08-27T12:28:26.810Z,99970.25
2022-08-27T12:30:55.031Z,99966.38
2022-08-27T12:33:34.459Z,99956.34
2022-08-27T12:36:27.741Z,99968.78
2022-08-27T12:38:58.327Z,99954.06
2022-08-27T12:41:32.122Z,99953.09
2022-08-27T12:44:09.305Z,99950.38
2022-08-27T12:46:45.768Z,99951.19
2022-08-27T12:49:38.028Z,99948.25
2022-08-27T12:52:18.343Z,99942.75
2022-08-27T12:55:06.774Z,99935.34
2022-08-27T12:58:02.377Z,99945.69
2022-08-27T13:00:38.780Z,99939.53
2022-08-27T13:03:26.177Z,99931.47
2022-08-27T13:05:57.435Z,99926.28
2022-08-27T13:08:30.104Z,99928.22
2022-08-27T13:11:07.065Z,99923.84
2022-08-27T13:13:34.202Z,99938.41
2022-08-27T13:16:04.478Z,99935.66
2022-08-27T13:18:31.647Z,99933.69
2022-08-27T13:21:14.565Z,99931.47
2022-08-27T13:23:49.286Z,99935.16
2022-08-27T13:26:23.340Z,99937.59
2022-08-27T13:28:51.909Z,99929.84
2022-08-27T13:31:22.253Z,99918.53
2022-08-27T13:33:49.725Z,99925.00
2022-08-27T13:36:32.366Z,99930.66
2022-08-27T13:39:02.149Z,99928.88
2022-08-27T13:41:35.050Z,99935.50
2022-08-27T13:44:19.104Z,99921.59
2022-08-27T13:46:52.277Z,99931.78
2022-08-27T13:49:24.479Z,99926.78
2022-08-27T13:52:01.054Z,99908.03
2022-08-27T13:54:29.283Z,99929.84
2022-08-27T13:57:10.052Z,99923.69
2022-08-27T13:59:42.953Z,99936.50
2022-08-27T14:02:10.389Z,99924.03
2022-08-27T14:05:03.807Z,99923.38
2022-08-27T14:07:34.482Z,99929.88
2022-08-27T14:10:25.579Z,99927.59
2022-08-27T14:13:04.144Z,99925.03
2022-08-27T14:15:31.280Z,99926.31
2022-08-27T14:17:58.077Z,99923.09
2022-08-27T14:20:25.843Z,99933.09
2022-08-27T14:22:53.392Z,99936.34
2022-08-27T14:25:21.494Z,99936.69
2022-08-27T14:27:54.215Z,99935.69
2022-08-27T14:30:25.282Z,99934.88
2022-08-27T14:32:58.568Z,99944.56
2022-08-27T14:35:26.590Z,99945.84
2022-08-27T14:37:54.728Z,99942.47
2022-08-27T14:40:22.249Z,99943.75
2022-08-27T14:42:49.504Z,99935.34
2022-08-27T14:45:17.874Z,99939.72
2022-08-27T14:47:45.369Z,99943.06
2022-08-27T14:50:14.067Z,99925.31
2022-08-27T14:52:40.871Z,99945.34
2022-08-27T14:55:10.902Z,99936.00
2022-08-27T14:57:38.664Z,99946.97
2022-08-27T15:00:07.881Z,99943.06
2022-08-27T15:02:35.202Z,99941.94
2022-08-27T15:05:03.432Z,99938.09
2022-08-27T15:07:38.995Z,99934.03
2022-08-27T15:10:09.243Z,99915.59
2022-08-27T15:12:36.658Z,99935.31
2022-08-27T15:15:04.671Z,99936.28
2022-08-27T15:17:34.588Z,99956.31
2022-08-27T15:20:09.129Z,99929.59
2022-08-27T15:22:44.099Z,99941.53
2022-08-27T15:25:11.867Z,99931.00
2022-08-27T15:27:39.475Z,99938.41
2022-08-27T15:30:10.077Z,99938.91
2022-08-27T15:32:41.043Z,99940.47
2022-08-27T15:35:12.410Z,99946.94
2022-08-27T15:37:41.340Z,99943.66
2022-08-27T15:40:09.269Z,99954.94
2022-08-27T15:42:36.189Z,99944.22
2022-08-27T15:45:03.979Z,99940.94
2022-08-27T15:47:31.001Z,99942.84
2022-08-27T15:49:57.817Z,99942.69
2022-08-27T15:52:24.744Z,99950.72
2022-08-27T15:54:51.791Z,99949.66
2022-08-27T15:57:20.427Z,99943.00
2022-08-27T15:59:47.920Z,99957.53
2022-08-27T16:02:22.199Z,99947.94
2022-08-27T16:04:50.097Z,99957.28
2022-08-27T16:07:21.131Z,99947.06
2022-08-27T16:09:48.297Z,99944.41
2022-08-27T16:12:27.060Z,99948.69
2022-08-27T16:14:55.691Z,99938.19
2022-08-27T16:17:24.382Z,99946.72
2022-08-27T16:19:51.282Z,99946.00
2022-08-27T16:22:18.456Z,99929.81
2022-08-27T16:24:45.566Z,99927.69
2022-08-27T16:27:12.273Z,99927.81
2022-08-27T16:29:39.529Z,99940.37
2022-08-27T16:32:11.340Z,99940.81
2022-08-27T16:34:39.591Z,99948.53
2022-08-27T16:37:06.628Z,99947.81
2022-08-27T16:39:37.390Z,99951.78
2022-08-27T16:42:10.733Z,99946.38
2022-08-27T16:44:38.423Z,99942.25
2022-08-27T16:47:06.878Z,99952.06
2022-08-27T16:49:52.608Z,99953.81
2022-08-27T16:52:20.855Z,99948.94
2022-08-27T16:54:48.020Z,99954.81
2022-08-27T16:57:14.803Z,99963.94
2022-08-27T16:59:41.486Z,99959.66
2022-08-27T17:02:19.354Z,99954.38
2022-08-27T17:05:07.301Z,99966.97
2022-08-27T17:07:33.259Z,99965.44
2022-08-27T17:10:05.095Z,99966.94
2022-08-27T17:12:32.604Z,99976.38
2022-08-27T17:15:00.827Z,99972.06
2022-08-27T17:17:29.687Z,99977.13
2022-08-27T17:19:56.753Z,99979.13
2022-08-27T17:22:24.531Z,99977.87
2022-08-27T17:24:51.297Z,99970.37
2022-08-27T17:27:20.329Z,99962.09
2022-08-27T17:29:47.249Z,99975.47
2022-08-27T17:32:13.999Z,99973.94
2022-08-27T17:34:40.658Z,99972.38
2022-08-27T17:37:07.669Z,99977.13
2022-08-27T17:39:34.307Z,99968.22
2022-08-27T17:42:01.123Z,99970.16
2022-08-27T17:44:31.930Z,99971.66
2022-08-27T17:47:02.798Z,99965.53
2022-08-27T17:49:31.191Z,99974.22
2022-08-27T17:52:01.432Z,99986.31
2022-08-27T17:54:44.286Z,99976.63
2022-08-27T17:57:27.456Z,99990.81
2022-08-27T17:59:55.664Z,99976.25
2022-08-27T18:02:28.942Z,99988.59
2022-08-27T18:04:56.840Z,99981.84
2022-08-27T18:07:24.255Z,99976.53
2022-08-27T18:09:51.230Z,99986.34
2022-08-27T18:12:21.834Z,99971.19
2022-08-27T18:14:58.272Z,99985.66
2022-08-27T18:17:25.338Z,99983.25
2022-08-27T18:19:52.165Z,99970.84
2022-08-27T18:22:19.444Z,99977.41
2022-08-27T18:24:46.470Z,99981.78
2022-08-27T18:27:13.362Z,99982.94
2022-08-27T18:29:40.825Z,99971.59
2022-08-27T18:32:07.776Z,99971.13
2022-08-27T18:34:34.503Z,99977.38
2022-08-27T18:37:01.194Z,99979.03
2022-08-27T18:39:29.137Z,99984.78
2022-08-27T18:41:55.785Z,99985.13
2022-08-27T18:44:22.467Z,99982.69
2022-08-27T18:46:49.531Z,99963.94
2022-08-27T18:49:16.316Z,99985.16
2022-08-27T18:51:44.916Z,99985.22
2022-08-27T18:54:14.063Z,99986.66
2022-08-27T18:56:40.742Z,99991.53
2022-08-27T18:59:07.450Z,99978.50
2022-08-27T19:01:34.607Z,99982.88
2022-08-27T19:04:03.378Z,99977.19
2022-08-27T19:06:30.264Z,99973.41
2022-08-27T19:08:57.548Z,99984.56
2022-08-27T19:11:24.360Z,99981.56
2022-08-27T19:13:51.100Z,99984.88
2022-08-27T19:16:44.460Z,99975.12
2022-08-27T19:19:13.681Z,99969.44
2022-08-27T19:21:41.268Z,99981.97
2022-08-27T19:24:08.645Z,99971.41
2022-08-27T19:26:36.307Z,99966.81
2022-08-27T19:29:04.592Z,99974.97
2022-08-27T19:31:33.517Z,99979.63
2022-08-27T19:34:00.424Z,99954.34
2022-08-27T19:36:27.541Z,99967.41
2022-08-27T19:38:55.375Z,99967.12
2022-08-27T19:41:26.008Z,99962.53
2022-08-27T19:43:54.897Z,99964.50
2022-08-27T19:46:24.108Z,99970.19
2022-08-27T19:48:51.334Z,99975.38
2022-08-27T19:51:18.542Z,99961.53
2022-08-27T19:53:45.670Z,99978.66
2022-08-27T19:56:13.743Z,99975.69
2022-08-27T19:58:42.798Z,99964.84
2022-08-27T20:01:09.875Z,99970.03
2022-08-27T20:03:39.308Z,99973.81
2022-08-27T20:06:06.129Z,99967.84
2022-08-27T20:08:33.559Z,99978.19
2022-08-27T20:11:01.416Z,99962.44
2022-08-27T20:13:32.932Z,99966.53
2022-08-27T20:16:01.436Z,99960.00
2022-08-27T20:18:28.413Z,99965.47
2022-08-27T20:20:55.370Z,99960.59
2022-08-27T20:23:22.424Z,99959.25
2022-08-27T20:25:52.393Z,99959.25
2022-08-27T20:28:38.730Z,99954.63
2022-08-27T20:31:07.654Z,99948.66
2022-08-27T20:33:34.388Z,99959.53
2022-08-27T20:36:02.879Z,99948.13
2022-08-27T20:38:30.167Z,99948.66
2022-08-27T20:40:56.873Z,99946.75
2022-08-27T20:43:23.502Z,99939.94
2022-08-27T20:45:50.632Z,99948.09
2022-08-27T20:48:17.331Z,99953.00
2022-08-27T20:50:44.027Z,99939.97
2022-08-27T20:53:11.281Z,99944.31
2022-08-27T20:55:38.021Z,99945.69
2022-08-27T20:58:23.118Z,99931.31
2022-08-27T21:00:52.267Z,99950.88
2022-08-27T21:03:19.320Z,99972.06
2022-08-27T21:05:48.467Z,99968.28
2022-08-27T21:08:18.265Z,99953.88
2022-08-27T21:10:52.447Z,99962.59
2022-08-27T21:13:20.669Z,99956.88
2022-08-27T21:15:48.767Z,99967.47
2022-08-27T21:18:21.433Z,99958.50
2022-08-27T21:20:56.265Z,99937.06
2022-08-27T21:23:23.354Z,99952.53
2022-08-27T21:25:50.004Z,99941.41
2022-08-27T21:28:16.774Z,99938.41
2022-08-27T21:30:45.146Z,99941.41
2022-08-27T21:33:11.832Z,99932.44
2022-08-27T21:35:38.637Z,99937.63
2022-08-27T21:38:05.606Z,99923.50
2022-08-27T21:40:33.132Z,99928.09
2022-08-27T21:43:01.817Z,99928.09
2022-08-27T21:45:28.785Z,99924.03
2022-08-27T21:47:55.687Z,99928.09
2022-08-27T21:50:23.684Z,99925.66
2022-08-27T21:52:50.803Z,99921.06
2022-08-27T21:55:18.464Z,99923.75
2022-08-27T21:57:45.156Z,99916.69
2022-08-27T22:00:38.922Z,99912.91
2022-08-27T22:03:10.286Z,99929.19
2022-08-27T22:05:40.014Z,99928.09
2022-08-27T22:08:08.915Z,99929.44
2022-08-27T22:10:35.929Z,99927.00
2022-08-27T22:13:03.322Z,99926.19
2022-08-27T22:15:30.778Z,99912.31
2022-08-27T22:17:58.323Z,99916.66
2022-08-27T22:20:25.018Z,99918.28
2022-08-27T22:22:52.393Z,99915.88
2022-08-27T22:25:19.383Z,99897.66
2022-08-27T22:27:46.046Z,99906.34
2022-08-27T22:30:13.585Z,99913.69
2022-08-27T22:32:40.408Z,99921.56
2022-08-27T22:35:08.749Z,99909.31
2022-08-27T22:37:36.603Z,99921.56
2022-08-27T22:40:05.978Z,99914.25
2022-08-27T22:42:32.748Z,99915.03
2022-08-27T22:45:00.923Z,99897.66
2022-08-27T22:47:27.901Z,99915.28
2022-08-27T22:49:54.595Z,99916.66
2022-08-27T22:52:28.202Z,99924.25
2022-08-27T22:54:55.321Z,99912.31
2022-08-27T22:57:22.072Z,99922.63
2022-08-27T22:59:49.012Z,99906.88
2022-08-27T23:02:16.135Z,99913.69
2022-08-27T23:04:54.917Z,99924.53
2022-08-27T23:07:24.599Z,99923.16
2022-08-27T23:09:51.318Z,99923.44
2022-08-27T23:12:19.775Z,99921.53
2022-08-27T23:14:46.874Z,99907.41
2022-08-27T23:17:13.921Z,99915.56
2022-08-27T23:19:40.589Z,99913.38
2022-08-27T23:22:08.774Z,99910.66
2022-08-27T23:24:55.900Z,99913.94
2022-08-27T23:27:28.781Z,99906.31
2022-08-27T23:29:59.914Z,99905.78
2022-08-27T23:32:27.042Z,99918.28
2022-08-27T23:34:53.957Z,99917.19
2022-08-27T23:37:21.497Z,99922.63
2022-08-27T23:39:48.679Z,99918.28
2022-08-27T23:42:18.529Z,99923.13
2022-08-27T23:44:49.074Z,99923.69
2022-08-27T23:47:17.696Z,99923.97
2022-08-27T23:49:44.594Z,99923.16
2022-08-27T23:52:12.494Z,99928.06
2022-08-27T23:54:40.264Z,99931.56
2022-08-27T23:57:07.004Z,99928.03
2022-08-27T23:59:33.758Z,99922.09
